createdAt,value
2022-08-16T00:01:33.688Z,85.67
2022-08-16T00:04:05.194Z,85.69
2022-08-16T00:06:33.856Z,85.71
2022-08-16T00:09:05.459Z,85.68
2022-08-16T00:11:34.942Z,85.59
2022-08-16T00:14:08.661Z,85.51
2022-08-16T00:17:01.375Z,85.39
2022-08-16T00:19:41.554Z,85.43
2022-08-16T00:22:13.570Z,85.46
2022-08-16T00:24:50.115Z,85.41
2022-08-16T00:27:19.973Z,85.50
2022-08-16T00:30:08.604Z,85.57
2022-08-16T00:32:39.236Z,85.55
2022-08-16T00:35:15.514Z,85.49
2022-08-16T00:37:56.700Z,85.51
2022-08-16T00:40:43.676Z,85.56
2022-08-16T00:43:24.055Z,85.45
2022-08-16T00:46:34.243Z,85.36
2022-08-16T00:49:17.243Z,85.29
2022-08-16T00:51:55.079Z,85.33
2022-08-16T00:54:29.831Z,85.35
2022-08-16T00:57:05.538Z,85.25
2022-08-16T00:59:50.731Z,85.28
2022-08-16T01:02:31.619Z,85.21
2022-08-16T01:05:10.980Z,85.22
2022-08-16T01:07:51.739Z,85.28
2022-08-16T01:10:32.416Z,85.40
2022-08-16T01:13:09.022Z,85.56
2022-08-16T01:15:45.574Z,85.57
2022-08-16T01:18:40.377Z,85.71
2022-08-16T01:21:33.495Z,85.95
2022-08-16T01:24:53.210Z,86.20
2022-08-16T01:27:18.670Z,86.41
2022-08-16T01:30:01.972Z,86.45
2022-08-16T01:32:36.222Z,86.53
2022-08-16T01:35:16.753Z,86.56
2022-08-16T01:37:52.989Z,86.62
2022-08-16T01:40:27.105Z,86.90
2022-08-16T01:42:56.276Z,86.99
2022-08-16T01:45:24.668Z,87.00
2022-08-16T01:48:19.191Z,87.06
2022-08-16T01:51:09.506Z,87.13
2022-08-16T01:53:41.330Z,87.17
2022-08-16T01:56:23.428Z,87.32
2022-08-16T01:58:59.770Z,87.53
2022-08-16T02:01:29.188Z,87.60
2022-08-16T02:04:10.266Z,87.72
2022-08-16T02:06:46.921Z,87.84
2022-08-16T02:09:19.614Z,87.90
2022-08-16T02:11:54.318Z,87.99
2022-08-16T02:14:27.335Z,88.17
2022-08-16T02:16:58.540Z,88.19
2022-08-16T02:19:58.702Z,88.28
2022-08-16T02:22:34.603Z,88.44
2022-08-16T02:25:23.408Z,88.47
2022-08-16T02:27:51.814Z,88.44
2022-08-16T02:30:36.666Z,88.43
2022-08-16T02:33:15.477Z,88.44
2022-08-16T02:35:53.691Z,88.45
2022-08-16T02:38:24.157Z,88.53
2022-08-16T02:40:54.343Z,88.55
2022-08-16T02:43:26.914Z,88.63
2022-08-16T02:45:57.399Z,88.79
2022-08-16T02:48:30.837Z,88.74
2022-08-16T02:51:06.477Z,88.84
2022-08-16T02:53:43.568Z,88.84
2022-08-16T02:56:14.962Z,88.93
2022-08-16T02:58:46.321Z,89.03
2022-08-16T03:01:25.463Z,89.11
2022-08-16T03:04:46.455Z,89.10
2022-08-16T03:06:57.497Z,89.32
2022-08-16T03:09:28.833Z,89.41
2022-08-16T03:12:02.552Z,89.48
2022-08-16T03:14:31.628Z,89.55
2022-08-16T03:17:01.858Z,89.69
2022-08-16T03:19:47.443Z,89.76
2022-08-16T03:22:28.150Z,89.71
2022-08-16T03:25:01.235Z,89.84
2022-08-16T03:27:32.279Z,89.82
2022-08-16T03:30:17.353Z,89.97
2022-08-16T03:32:51.251Z,89.89
2022-08-16T03:35:32.446Z,89.93
2022-08-16T03:38:05.053Z,89.89
2022-08-16T03:40:54.570Z,89.82
2022-08-16T03:43:24.508Z,89.83
2022-08-16T03:46:13.670Z,89.79
2022-08-16T03:49:02.204Z,89.74
2022-08-16T03:51:30.438Z,89.77
2022-08-16T03:54:01.288Z,89.74
2022-08-16T03:56:30.544Z,89.68
2022-08-16T03:58:59.661Z,89.56
2022-08-16T04:01:29.952Z,89.55
2022-08-16T04:03:58.258Z,89.52
2022-08-16T04:06:30.732Z,89.54
2022-08-16T04:08:58.706Z,89.56
2022-08-16T04:11:26.664Z,89.59
2022-08-16T04:14:08.582Z,89.50
2022-08-16T04:16:53.529Z,89.51
2022-08-16T04:19:21.627Z,89.49
2022-08-16T04:21:49.850Z,89.45
2022-08-16T04:24:17.610Z,89.41
2022-08-16T04:26:45.990Z,89.42
2022-08-16T04:29:23.297Z,89.41
2022-08-16T04:31:56.576Z,89.34
2022-08-16T04:34:31.179Z,89.27
2022-08-16T04:37:01.928Z,89.22
2022-08-16T04:39:44.905Z,89.16
2022-08-16T04:42:26.013Z,89.15
2022-08-16T04:44:58.617Z,89.16
2022-08-16T04:47:35.443Z,89.17
2022-08-16T04:50:14.459Z,89.17
2022-08-16T04:52:46.203Z,89.15
2022-08-16T04:55:20.965Z,89.13
2022-08-16T04:58:00.425Z,89.10
2022-08-16T05:00:34.514Z,89.04
2022-08-16T05:03:07.382Z,88.94
2022-08-16T05:05:44.832Z,88.85
2022-08-16T05:08:30.484Z,88.74
2022-08-16T05:11:03.480Z,88.58
2022-08-16T05:13:41.311Z,88.35
2022-08-16T05:16:32.256Z,88.11
2022-08-16T05:19:05.364Z,87.83
2022-08-16T05:21:39.931Z,87.48
2022-08-16T05:24:08.957Z,87.07
2022-08-16T05:26:40.858Z,86.77
2022-08-16T05:29:15.254Z,86.48
2022-08-16T05:31:48.027Z,86.13
2022-08-16T05:34:20.355Z,85.75
2022-08-16T05:36:53.548Z,85.56
2022-08-16T05:39:22.450Z,85.39
2022-08-16T05:41:52.389Z,85.20
2022-08-16T05:44:25.224Z,84.74
2022-08-16T05:46:56.718Z,84.53
2022-08-16T05:49:39.510Z,84.28
2022-08-16T05:52:10.679Z,84.04
2022-08-16T05:54:46.775Z,83.60
2022-08-16T05:57:18.762Z,83.07
2022-08-16T05:59:50.640Z,82.36
2022-08-16T06:02:33.966Z,82.51
2022-08-16T06:05:03.771Z,82.72
2022-08-16T06:07:32.436Z,82.86
2022-08-16T06:10:02.271Z,82.87
2022-08-16T06:12:31.431Z,82.81
2022-08-16T06:15:04.299Z,82.39
2022-08-16T06:17:42.438Z,81.96
2022-08-16T06:20:24.266Z,81.15
2022-08-16T06:23:03.254Z,78.73
2022-08-16T06:25:35.770Z,76.49
2022-08-16T06:28:17.010Z,75.56
2022-08-16T06:30:59.125Z,74.13
2022-08-16T06:33:29.957Z,75.25
2022-08-16T06:36:14.239Z,75.39
2022-08-16T06:38:55.855Z,75.36
2022-08-16T06:41:27.273Z,75.41
2022-08-16T06:43:57.566Z,74.49
2022-08-16T06:46:34.559Z,73.30
2022-08-16T06:49:05.765Z,72.70
2022-08-16T06:51:48.333Z,72.94
2022-08-16T06:54:17.747Z,71.44
2022-08-16T06:56:46.192Z,71.41
2022-08-16T06:59:14.498Z,71.42
2022-08-16T07:01:52.088Z,69.90
2022-08-16T07:04:33.261Z,69.05
2022-08-16T07:07:09.895Z,69.21
2022-08-16T07:09:39.518Z,68.47
2022-08-16T07:12:08.518Z,69.51
2022-08-16T07:14:36.576Z,69.87
2022-08-16T07:17:11.567Z,69.79
2022-08-16T07:20:03.153Z,69.74
2022-08-16T07:22:38.848Z,69.20
2022-08-16T07:25:10.506Z,68.23
2022-08-16T07:27:41.401Z,67.48
2022-08-16T07:30:38.060Z,66.45
2022-08-16T07:33:02.525Z,64.65
2022-08-16T07:35:31.110Z,63.24
2022-08-16T07:38:00.001Z,61.21
2022-08-16T07:40:49.559Z,60.13
2022-08-16T07:43:16.655Z,59.97
2022-08-16T07:45:47.222Z,59.59
2022-08-16T07:48:22.261Z,58.81
2022-08-16T07:50:56.310Z,59.32
2022-08-16T07:53:30.038Z,59.19
2022-08-16T07:56:00.726Z,58.25
2022-08-16T07:58:33.779Z,58.28
2022-08-16T08:01:10.699Z,57.95
2022-08-16T08:03:48.404Z,57.02
2022-08-16T08:06:19.806Z,56.93
2022-08-16T08:08:49.240Z,56.75
2022-08-16T08:11:18.346Z,55.76
2022-08-16T08:13:46.609Z,53.54
2022-08-16T08:16:18.343Z,50.89
2022-08-16T08:18:50.111Z,49.25
2022-08-16T08:21:19.573Z,49.83
2022-08-16T08:23:57.256Z,48.61
2022-08-16T08:26:25.456Z,47.23
2022-08-16T08:28:53.506Z,44.44
2022-08-16T08:31:29.579Z,45.96
2022-08-16T08:34:00.115Z,47.02
2022-08-16T08:36:34.244Z,47.13
2022-08-16T08:39:13.138Z,46.83
2022-08-16T08:41:43.619Z,46.69
2022-08-16T08:44:28.815Z,45.23
2022-08-16T08:47:11.081Z,46.92
2022-08-16T08:49:50.386Z,48.05
2022-08-16T08:52:34.583Z,48.75
2022-08-16T08:55:09.078Z,49.55
2022-08-16T08:57:47.839Z,50.19
2022-08-16T09:00:21.285Z,50.94
2022-08-16T09:03:07.912Z,51.97
2022-08-16T09:05:38.373Z,53.70
2022-08-16T09:08:07.409Z,54.37
2022-08-16T09:10:39.549Z,54.34
2022-08-16T09:13:10.684Z,54.60
2022-08-16T09:15:40.106Z,55.04
2022-08-16T09:18:25.263Z,55.33
2022-08-16T09:20:58.371Z,55.97
2022-08-16T09:23:36.409Z,57.35
2022-08-16T09:26:44.167Z,58.20
2022-08-16T09:29:15.121Z,57.85
2022-08-16T09:31:44.128Z,58.35
2022-08-16T09:34:18.632Z,58.57
2022-08-16T09:36:47.669Z,59.33
2022-08-16T09:39:16.653Z,59.58
2022-08-16T09:41:53.941Z,60.31
2022-08-16T09:45:11.627Z,60.54
2022-08-16T09:47:13.250Z,60.44
2022-08-16T09:49:41.383Z,60.67
2022-08-16T09:52:10.619Z,60.57
2022-08-16T09:54:44.505Z,60.46
2022-08-16T09:57:15.006Z,59.90
2022-08-16T09:59:43.297Z,59.13
2022-08-16T10:02:23.034Z,59.77
2022-08-16T10:04:58.747Z,60.11
2022-08-16T10:07:44.350Z,58.97
2022-08-16T10:10:18.697Z,58.70
2022-08-16T10:13:16.267Z,59.31
2022-08-16T10:15:55.531Z,59.74
2022-08-16T10:18:56.598Z,59.61
2022-08-16T10:21:18.395Z,58.85
2022-08-16T10:23:48.869Z,58.81
2022-08-16T10:27:18.381Z,59.07
2022-08-16T10:29:09.022Z,58.78
2022-08-16T10:31:44.227Z,59.09
2022-08-16T10:34:31.130Z,59.61
2022-08-16T10:37:02.339Z,59.41
2022-08-16T10:39:41.118Z,58.01
2022-08-16T10:42:13.275Z,57.61
2022-08-16T10:44:42.311Z,58.60
2022-08-16T10:47:11.974Z,57.15
2022-08-16T10:49:39.914Z,57.95
2022-08-16T10:52:18.393Z,58.43
2022-08-16T10:57:35.422Z,58.19
2022-08-16T11:00:21.391Z,57.35
2022-08-16T11:02:58.461Z,58.82
2022-08-16T11:05:59.097Z,59.87
2022-08-16T11:08:31.188Z,61.38
2022-08-16T11:11:11.799Z,61.44
2022-08-16T11:14:11.207Z,61.19
2022-08-16T11:19:26.245Z,62.90
2022-08-16T11:22:39.367Z,63.33
2022-08-16T11:24:45.453Z,63.18
2022-08-16T11:27:35.855Z,63.44
2022-08-16T11:30:09.106Z,63.53
2022-08-16T11:32:38.190Z,63.53
2022-08-16T11:35:14.781Z,62.88
2022-08-16T11:40:52.673Z,64.10
2022-08-16T11:43:26.439Z,64.15
2022-08-16T11:45:57.017Z,64.13
2022-08-16T11:48:38.668Z,64.18
2022-08-16T11:51:07.459Z,63.67
2022-08-16T11:53:36.070Z,63.17
2022-08-16T11:56:06.269Z,63.06
2022-08-16T11:58:34.990Z,63.49
2022-08-16T12:01:03.120Z,63.76
2022-08-16T12:03:34.428Z,63.05
2022-08-16T12:06:24.560Z,62.23
2022-08-16T12:09:01.006Z,61.99
2022-08-16T12:11:32.104Z,62.21
2022-08-16T12:14:04.516Z,62.01
2022-08-16T12:16:34.970Z,61.42
2022-08-16T12:19:10.729Z,61.64
2022-08-16T12:21:58.665Z,61.43
2022-08-16T12:24:30.090Z,61.44
2022-08-16T12:27:00.027Z,60.50
2022-08-16T12:29:30.205Z,61.25
2022-08-16T12:32:01.556Z,61.31
2022-08-16T12:34:47.923Z,61.31
2022-08-16T12:37:19.675Z,61.56
2022-08-16T12:39:51.041Z,60.99
2022-08-16T12:42:20.670Z,61.49
2022-08-16T12:44:50.199Z,61.80
2022-08-16T12:47:38.130Z,59.95
2022-08-16T12:50:10.598Z,59.64
2022-08-16T12:52:44.407Z,58.39
2022-08-16T12:55:24.231Z,58.83
2022-08-16T12:58:01.813Z,57.20
2022-08-16T13:00:33.447Z,55.42
2022-08-16T13:03:03.655Z,52.14
2022-08-16T13:08:00.815Z,49.07
2022-08-16T13:10:37.646Z,49.94
2022-08-16T13:13:09.335Z,50.91
2022-08-16T13:15:55.971Z,51.48
2022-08-16T13:18:34.755Z,51.65
2022-08-16T13:21:07.058Z,52.97
2022-08-16T13:23:36.951Z,53.04
2022-08-16T13:26:17.818Z,52.75
2022-08-16T13:28:47.864Z,53.37
2022-08-16T13:31:17.032Z,53.64
2022-08-16T13:33:45.504Z,53.88
2022-08-16T13:36:32.196Z,53.37
2022-08-16T13:39:03.885Z,52.36
2022-08-16T13:41:32.650Z,52.31
2022-08-16T13:44:00.991Z,52.04
2022-08-16T13:46:32.605Z,51.12
2022-08-16T13:49:00.924Z,49.61
2022-08-16T13:51:30.614Z,47.25
2022-08-16T13:54:04.483Z,46.61
2022-08-16T13:56:37.432Z,45.10
2022-08-16T13:59:14.347Z,44.20
2022-08-16T14:01:54.662Z,43.53
2022-08-16T14:04:29.256Z,43.86
2022-08-16T14:06:59.205Z,43.67
2022-08-16T14:09:29.413Z,43.65
2022-08-16T14:12:00.884Z,42.39
2022-08-16T14:14:30.292Z,41.96
2022-08-16T14:17:05.006Z,40.98
2022-08-16T14:19:45.017Z,39.83
2022-08-16T14:22:30.439Z,39.01
2022-08-16T14:25:00.735Z,38.69
2022-08-16T14:27:31.176Z,38.21
2022-08-16T14:30:01.398Z,37.22
2022-08-16T14:32:33.442Z,37.41
2022-08-16T14:35:07.446Z,37.48
2022-08-16T14:37:36.486Z,37.01
2022-08-16T14:40:07.584Z,36.67
2022-08-16T14:42:36.749Z,35.74
2022-08-16T14:45:09.154Z,34.95
2022-08-16T14:47:38.530Z,34.32
2022-08-16T14:50:10.164Z,34.21
2022-08-16T14:52:56.399Z,34.15
2022-08-16T14:55:29.239Z,33.71
2022-08-16T14:57:58.469Z,33.55
2022-08-16T15:00:36.451Z,33.70
2022-08-16T15:03:09.751Z,33.58
2022-08-16T15:05:40.740Z,32.79
2022-08-16T15:08:10.451Z,32.38
2022-08-16T15:10:42.737Z,32.31
2022-08-16T15:13:15.098Z,32.41
2022-08-16T15:15:44.132Z,32.36
2022-08-16T15:18:23.433Z,32.18
2022-08-16T15:20:57.769Z,32.51
2022-08-16T15:23:28.625Z,32.48
2022-08-16T15:26:02.923Z,32.18
2022-08-16T15:28:37.314Z,31.87
2022-08-16T15:31:10.005Z,31.68
2022-08-16T15:33:51.090Z,31.93
2022-08-16T15:36:27.201Z,32.27
2022-08-16T15:39:05.781Z,32.26
2022-08-16T15:41:46.860Z,31.91
2022-08-16T15:44:22.637Z,31.95
2022-08-16T15:46:54.593Z,32.10
2022-08-16T15:49:38.676Z,32.22
2022-08-16T15:52:20.471Z,32.62
2022-08-16T15:54:53.001Z,32.77
2022-08-16T15:57:28.536Z,33.10
2022-08-16T16:00:15.406Z,33.32
2022-08-16T16:02:45.478Z,33.54
2022-08-16T16:05:14.631Z,33.17
2022-08-16T16:07:55.911Z,33.71
2022-08-16T16:10:29.379Z,35.07
2022-08-16T16:13:00.954Z,35.73
2022-08-16T16:15:33.317Z,36.56
2022-08-16T16:18:09.533Z,37.19
2022-08-16T16:20:47.357Z,38.33
2022-08-16T16:23:23.502Z,39.69
2022-08-16T16:25:55.020Z,40.86
2022-08-16T16:29:05.479Z,41.65
2022-08-16T16:31:18.638Z,42.57
2022-08-16T16:33:51.504Z,43.51
2022-08-16T16:36:24.313Z,44.99
2022-08-16T16:38:56.630Z,45.84
2022-08-16T16:41:28.396Z,46.93
2022-08-16T16:44:01.297Z,47.82
2022-08-16T16:46:43.039Z,48.62
2022-08-16T16:49:13.963Z,49.67
2022-08-16T16:51:44.472Z,50.12
2022-08-16T16:54:13.379Z,50.58
2022-08-16T16:56:59.594Z,51.55
2022-08-16T16:59:28.433Z,52.60
2022-08-16T17:02:38.529Z,53.02
2022-08-16T17:04:48.550Z,53.77
2022-08-16T17:07:18.049Z,54.61
2022-08-16T17:09:54.059Z,55.52
2022-08-16T17:12:24.891Z,56.29
2022-08-16T17:14:55.309Z,57.13
2022-08-16T17:17:24.382Z,58.00
2022-08-16T17:19:52.553Z,58.32
2022-08-16T17:22:23.364Z,58.56
2022-08-16T17:24:53.564Z,59.10
2022-08-16T17:27:33.676Z,59.49
2022-08-16T17:30:20.181Z,59.71
2022-08-16T17:33:05.670Z,59.91
2022-08-16T17:35:37.085Z,60.38
2022-08-16T17:38:09.172Z,61.07
2022-08-16T17:40:47.771Z,62.09
2022-08-16T17:43:36.057Z,62.39
2022-08-16T17:46:06.438Z,63.94
2022-08-16T17:48:54.894Z,65.43
2022-08-16T17:51:28.875Z,66.03
2022-08-16T17:53:57.478Z,66.88
2022-08-16T17:56:25.530Z,67.13
2022-08-16T17:58:53.424Z,67.24
2022-08-16T18:01:26.777Z,67.48
2022-08-16T18:04:07.804Z,67.58
2022-08-16T18:06:41.157Z,68.27
2022-08-16T18:09:10.337Z,68.72
2022-08-16T18:11:40.699Z,69.26
2022-08-16T18:14:10.558Z,69.60
2022-08-16T18:16:41.004Z,70.45
2022-08-16T18:19:11.615Z,70.54
2022-08-16T18:21:59.878Z,70.58
2022-08-16T18:24:29.596Z,70.14
2022-08-16T18:27:25.632Z,69.89
2022-08-16T18:29:47.415Z,69.73
2022-08-16T18:32:22.003Z,69.86
2022-08-16T18:34:55.362Z,69.90
2022-08-16T18:37:24.750Z,70.02
2022-08-16T18:39:53.064Z,70.18
2022-08-16T18:42:21.316Z,70.18
2022-08-16T18:44:49.372Z,70.57
2022-08-16T18:47:17.359Z,70.78
2022-08-16T18:49:45.716Z,70.74
2022-08-16T18:52:25.057Z,70.63
2022-08-16T18:55:01.794Z,70.69
2022-08-16T18:57:31.538Z,70.87
2022-08-16T18:59:59.606Z,71.08
2022-08-16T19:02:56.806Z,71.07
2022-08-16T19:05:24.515Z,71.15
2022-08-16T19:07:52.596Z,71.32
2022-08-16T19:10:21.080Z,71.61
2022-08-16T19:12:49.298Z,71.58
2022-08-16T19:15:21.911Z,71.82
2022-08-16T19:17:50.201Z,71.89
2022-08-16T19:20:22.775Z,72.23
2022-08-16T19:23:05.233Z,72.37
2022-08-16T19:25:48.728Z,72.47
2022-08-16T19:28:51.734Z,72.72
2022-08-16T19:31:25.222Z,72.93
2022-08-16T19:33:57.020Z,72.99
2022-08-16T19:36:37.130Z,73.53
2022-08-16T19:39:11.737Z,73.71
2022-08-16T19:41:53.784Z,73.85
2022-08-16T19:44:23.662Z,74.19
2022-08-16T19:46:52.031Z,74.31
2022-08-16T19:49:20.207Z,74.40
2022-08-16T19:51:48.939Z,74.45
2022-08-16T19:54:18.099Z,74.93
2022-08-16T19:56:46.462Z,75.18
2022-08-16T19:59:20.529Z,75.38
2022-08-16T20:01:52.373Z,75.57
2022-08-16T20:04:22.872Z,75.91
2022-08-16T20:06:52.453Z,76.21
2022-08-16T20:09:23.918Z,76.85
2022-08-16T20:11:53.940Z,77.28
2022-08-16T20:14:25.338Z,77.44
2022-08-16T20:17:00.886Z,77.73
2022-08-16T20:19:36.040Z,78.26
2022-08-16T20:22:30.020Z,78.58
2022-08-16T20:25:07.509Z,78.48
2022-08-16T20:27:40.526Z,78.42
2022-08-16T20:30:11.294Z,78.25
2022-08-16T20:32:39.327Z,78.16
2022-08-16T20:35:10.679Z,78.40
2022-08-16T20:37:39.874Z,78.47
2022-08-16T20:40:28.441Z,78.70
2022-08-16T20:43:06.708Z,78.86
2022-08-16T20:45:36.541Z,78.98
2022-08-16T20:48:11.710Z,79.08
2022-08-16T20:50:39.902Z,79.28
2022-08-16T20:53:09.154Z,79.64
2022-08-16T20:55:40.606Z,80.31
2022-08-16T20:58:08.848Z,80.74
2022-08-16T21:00:37.359Z,80.69
2022-08-16T21:03:10.282Z,80.88
2022-08-16T21:05:38.717Z,80.92
2022-08-16T21:08:28.687Z,80.94
2022-08-16T21:10:56.826Z,81.17
2022-08-16T21:13:26.101Z,81.44
2022-08-16T21:15:54.452Z,81.54
2022-08-16T21:18:22.526Z,81.71
2022-08-16T21:20:50.796Z,81.83
2022-08-16T21:23:18.969Z,82.08
2022-08-16T21:25:54.819Z,82.48
2022-08-16T21:28:38.990Z,82.75
2022-08-16T21:31:13.430Z,82.83
2022-08-16T21:33:43.436Z,82.87
2022-08-16T21:36:12.721Z,82.96
2022-08-16T21:38:40.996Z,83.03
2022-08-16T21:41:12.077Z,83.18
2022-08-16T21:43:40.621Z,83.38
2022-08-16T21:46:09.202Z,83.41
2022-08-16T21:48:40.695Z,83.45
2022-08-16T21:51:13.264Z,83.47
2022-08-16T21:53:43.286Z,83.62
2022-08-16T21:56:12.715Z,83.91
2022-08-16T21:58:52.791Z,83.93
2022-08-16T22:01:23.355Z,84.01
2022-08-16T22:04:35.241Z,84.09
2022-08-16T22:06:42.507Z,84.50
2022-08-16T22:09:15.509Z,84.78
2022-08-16T22:11:44.493Z,84.74
2022-08-16T22:14:12.967Z,84.83
2022-08-16T22:16:42.217Z,84.79
2022-08-16T22:19:12.363Z,84.95
2022-08-16T22:21:40.868Z,85.03
2022-08-16T22:24:10.165Z,85.16
2022-08-16T22:26:43.061Z,85.40
2022-08-16T22:29:15.238Z,85.55
2022-08-16T22:31:44.618Z,85.58
2022-08-16T22:34:14.030Z,85.61
2022-08-16T22:36:43.012Z,85.72
2022-08-16T22:39:13.612Z,85.77
2022-08-16T22:41:45.851Z,85.91
2022-08-16T22:44:14.997Z,86.01
2022-08-16T22:46:44.659Z,86.12
2022-08-16T22:49:13.367Z,86.37
2022-08-16T22:51:42.535Z,86.35
2022-08-16T22:54:43.845Z,86.27
2022-08-16T22:56:59.461Z,86.44
2022-08-16T22:59:30.559Z,86.35
2022-08-16T23:02:02.589Z,86.36
2022-08-16T23:04:30.913Z,86.21
2022-08-16T23:06:59.085Z,86.18
2022-08-16T23:09:27.296Z,86.30
2022-08-16T23:11:55.542Z,86.25
2022-08-16T23:14:23.491Z,86.26
2022-08-16T23:16:51.461Z,86.25
2022-08-16T23:19:19.639Z,86.36
2022-08-16T23:21:49.150Z,86.41
2022-08-16T23:24:20.757Z,86.46
2022-08-16T23:26:49.454Z,86.56
2022-08-16T23:29:23.796Z,86.64
2022-08-16T23:31:56.568Z,86.68
2022-08-16T23:34:27.184Z,86.67
2022-08-16T23:36:56.464Z,86.63
2022-08-16T23:39:24.870Z,86.64
2022-08-16T23:41:53.163Z,86.63
2022-08-16T23:44:56.047Z,86.89
2022-08-16T23:47:10.100Z,86.95
2022-08-16T23:49:56.291Z,86.99
2022-08-16T23:52:53.248Z,87.01
2022-08-16T23:55:16.975Z,87.08
2022-08-16T23:57:46.790Z,87.13
